createdAt,value
2019-06-20T00:00:10.571Z,95172.55
2019-06-20T00:01:14.734Z,95170.88
2019-06-20T00:02:18.348Z,95171.58
2019-06-20T00:03:22.468Z,95173.40
2019-06-20T00:04:26.064Z,95174.57
2019-06-20T00:05:30.238Z,95177.26
2019-06-20T00:06:33.757Z,95171.50
2019-06-20T00:07:37.925Z,95179.32
2019-06-20T00:08:41.457Z,95169.73
2019-06-20T00:09:45.570Z,95171.95
2019-06-20T00:10:49.454Z,95169.31
2019-06-20T00:11:54.343Z,95161.89
2019-06-20T00:13:00.811Z,95163.55
2019-06-20T00:14:03.709Z,95157.39
2019-06-20T00:15:07.396Z,95155.51
2019-06-20T00:16:11.548Z,95155.73
2019-06-20T00:17:15.142Z,95151.02
2019-06-20T00:18:19.134Z,95154.19
2019-06-20T00:19:22.665Z,95160.99
2019-06-20T00:20:26.766Z,95153.95
2019-06-20T00:21:30.296Z,95160.28
2019-06-20T00:22:34.338Z,95152.66
2019-06-20T00:23:37.862Z,95158.29
2019-06-20T00:24:42.055Z,95161.22
2019-06-20T00:25:45.630Z,95161.44
2019-06-20T00:26:49.813Z,95161.49
2019-06-20T00:27:53.229Z,95166.86
2019-06-20T00:28:57.404Z,95167.63
2019-06-20T00:30:01.003Z,95168.45
2019-06-20T00:31:05.182Z,95171.41
2019-06-20T00:32:08.710Z,95179.98
2019-06-20T00:33:12.749Z,95170.59
2019-06-20T00:34:16.310Z,95171.80
2019-06-20T00:35:20.438Z,95176.78
2019-06-20T00:36:23.892Z,95172.94
2019-06-20T00:37:28.076Z,95178.16
2019-06-20T00:38:31.606Z,95184.46
2019-06-20T00:39:35.670Z,95178.57
2019-06-20T00:40:39.305Z,95180.08
2019-06-20T00:41:43.368Z,95178.17
2019-06-20T00:42:46.876Z,95182.97
2019-06-20T00:43:50.980Z,95177.43
2019-06-20T00:44:54.584Z,95183.63
2019-06-20T00:45:58.754Z,95185.16
2019-06-20T00:47:02.164Z,95182.82
2019-06-20T00:48:06.423Z,95193.66
2019-06-20T00:49:10.983Z,95184.73
2019-06-20T00:50:15.167Z,95187.84
2019-06-20T00:51:18.659Z,95179.92
2019-06-20T00:52:22.755Z,95183.06
2019-06-20T00:53:26.223Z,95184.97
2019-06-20T00:54:30.403Z,95204.24
2019-06-20T00:55:33.956Z,95189.54
2019-06-20T00:56:38.051Z,95181.69
2019-06-20T00:57:41.564Z,95192.37
2019-06-20T00:58:45.753Z,95197.11
2019-06-20T00:59:49.356Z,95197.30
2019-06-20T01:00:53.527Z,95196.07
2019-06-20T01:01:57.135Z,95203.19
2019-06-20T01:03:01.243Z,95209.74
2019-06-20T01:04:04.825Z,95202.01
2019-06-20T01:05:09.263Z,95213.20
2019-06-20T01:06:12.749Z,95212.30
2019-06-20T01:07:16.806Z,95214.16
2019-06-20T01:08:20.226Z,95226.29
2019-06-20T01:09:24.328Z,95220.20
2019-06-20T01:10:27.878Z,95211.92
2019-06-20T01:11:32.101Z,95223.88
2019-06-20T01:12:35.704Z,95217.84
2019-06-20T01:13:39.818Z,95214.79
2019-06-20T01:14:43.274Z,95222.54
2019-06-20T01:15:49.323Z,95211.86
2019-06-20T01:16:52.966Z,95209.15
2019-06-20T01:17:57.088Z,95209.34
2019-06-20T01:19:00.728Z,95209.36
2019-06-20T01:20:06.845Z,95214.69
2019-06-20T01:21:10.467Z,95212.33
2019-06-20T01:22:14.502Z,95223.53
2019-06-20T01:23:18.018Z,95217.34
2019-06-20T01:24:22.150Z,95216.75
2019-06-20T01:25:39.633Z,95217.31
2019-06-20T01:26:43.733Z,95213.87
2019-06-20T01:27:47.267Z,95216.59
2019-06-20T01:28:51.311Z,95225.92
2019-06-20T01:29:54.814Z,95226.05
2019-06-20T01:30:59.064Z,95222.55
2019-06-20T01:32:02.663Z,95215.66
2019-06-20T01:33:07.260Z,95214.91
2019-06-20T01:34:10.760Z,95219.59
2019-06-20T01:35:15.131Z,95232.70
2019-06-20T01:36:18.664Z,95230.91
2019-06-20T01:37:22.696Z,95223.10
2019-06-20T01:38:26.224Z,95221.05
2019-06-20T01:39:30.271Z,95222.27
2019-06-20T01:40:33.816Z,95229.78
2019-06-20T01:41:37.949Z,95232.34
2019-06-20T01:42:41.459Z,95234.40
2019-06-20T01:43:50.705Z,95236.73
2019-06-20T01:44:50.653Z,95234.95
2019-06-20T01:45:54.852Z,95235.11
2019-06-20T01:46:58.390Z,95232.47
2019-06-20T01:48:02.518Z,95242.92
2019-06-20T01:49:06.297Z,95239.14
2019-06-20T01:50:10.509Z,95238.31
2019-06-20T01:51:14.089Z,95246.14
2019-06-20T01:52:18.163Z,95256.12
2019-06-20T01:53:21.612Z,95255.99
2019-06-20T01:54:25.709Z,95256.52
2019-06-20T01:55:29.162Z,95255.73
2019-06-20T01:56:33.272Z,95254.22
2019-06-20T01:57:36.762Z,95247.77
2019-06-20T01:58:40.862Z,95257.11
2019-06-20T01:59:44.405Z,95260.13
2019-06-20T02:00:51.145Z,95271.66
2019-06-20T02:01:54.696Z,95261.92
2019-06-20T02:02:58.910Z,95267.69
2019-06-20T02:04:02.502Z,95265.00
2019-06-20T02:05:08.273Z,95275.09
2019-06-20T02:06:11.846Z,95276.63
2019-06-20T02:07:16.025Z,95280.30
2019-06-20T02:08:19.644Z,95278.32
2019-06-20T02:09:23.812Z,95283.81
2019-06-20T02:10:27.400Z,95280.49
2019-06-20T02:11:31.443Z,95291.50
2019-06-20T02:12:34.977Z,95287.70
2019-06-20T02:13:39.099Z,95290.43
2019-06-20T02:14:42.618Z,95303.38
2019-06-20T02:15:48.299Z,95304.84
2019-06-20T02:16:52.367Z,95315.05
2019-06-20T02:17:56.492Z,95310.70
2019-06-20T02:19:01.324Z,95316.46
2019-06-20T02:20:07.291Z,95321.13
2019-06-20T02:21:10.855Z,95318.72
2019-06-20T02:22:14.867Z,95318.95
2019-06-20T02:23:18.624Z,95317.05
2019-06-20T02:24:22.657Z,95319.03
2019-06-20T02:25:26.178Z,95318.55
2019-06-20T02:26:30.352Z,95313.19
2019-06-20T02:27:33.812Z,95313.03
2019-06-20T02:28:38.026Z,95304.24
2019-06-20T02:29:41.465Z,95298.52
2019-06-20T02:30:45.698Z,95295.36
2019-06-20T02:31:49.151Z,95295.68
2019-06-20T02:32:53.367Z,95293.00
2019-06-20T02:33:56.873Z,95282.39
2019-06-20T02:35:01.035Z,95277.03
2019-06-20T02:36:04.574Z,95267.61
2019-06-20T02:37:08.728Z,95271.03
2019-06-20T02:38:12.197Z,95266.97
2019-06-20T02:39:16.359Z,95261.77
2019-06-20T02:40:19.929Z,95257.67
2019-06-20T02:41:24.136Z,95252.78
2019-06-20T02:42:27.695Z,95259.80
2019-06-20T02:43:31.837Z,95267.24
2019-06-20T02:44:35.380Z,95264.88
2019-06-20T02:45:39.581Z,95274.55
2019-06-20T02:46:43.145Z,95274.58
2019-06-20T02:47:47.326Z,95275.52
2019-06-20T02:48:50.842Z,95277.89
2019-06-20T02:49:55.990Z,95273.19
2019-06-20T02:50:59.705Z,95275.98
2019-06-20T02:52:04.381Z,95275.52
2019-06-20T02:53:07.987Z,95273.39
2019-06-20T02:54:12.081Z,95269.78
2019-06-20T02:55:15.706Z,95268.27
2019-06-20T02:56:19.936Z,95266.03
2019-06-20T02:57:23.393Z,95269.50
2019-06-20T02:58:27.417Z,95273.67
2019-06-20T02:59:30.943Z,95275.88
2019-06-20T03:00:53.121Z,95276.63
2019-06-20T03:01:56.586Z,95280.48
2019-06-20T03:03:00.692Z,95284.69
2019-06-20T03:04:04.203Z,95280.23
2019-06-20T03:05:09.840Z,95283.06
2019-06-20T03:06:13.309Z,95285.63
2019-06-20T03:07:17.412Z,95284.75
2019-06-20T03:08:21.000Z,95281.56
2019-06-20T03:09:25.021Z,95288.20
2019-06-20T03:10:28.531Z,95288.05
2019-06-20T03:11:32.649Z,95285.02
2019-06-20T03:12:36.208Z,95288.41
2019-06-20T03:13:40.357Z,95287.95
2019-06-20T03:14:45.674Z,95292.94
2019-06-20T03:15:52.389Z,95292.84
2019-06-20T03:16:56.337Z,95293.77
2019-06-20T03:18:00.366Z,95293.95
2019-06-20T03:19:04.253Z,95291.99
2019-06-20T03:20:11.375Z,95286.58
2019-06-20T03:21:14.818Z,95279.27
2019-06-20T03:22:18.964Z,95281.78
2019-06-20T03:23:22.585Z,95278.70
2019-06-20T03:24:26.665Z,95276.27
2019-06-20T03:25:30.294Z,95272.72
2019-06-20T03:26:34.404Z,95267.05
2019-06-20T03:27:37.925Z,95260.34
2019-06-20T03:28:42.048Z,95258.38
2019-06-20T03:29:45.495Z,95261.18
2019-06-20T03:30:49.686Z,95257.91
2019-06-20T03:31:53.222Z,95259.44
2019-06-20T03:32:57.272Z,95253.95
2019-06-20T03:34:00.888Z,95261.47
2019-06-20T03:35:06.084Z,95261.19
2019-06-20T03:36:09.676Z,95264.16
2019-06-20T03:37:13.757Z,95266.55
2019-06-20T03:38:17.273Z,95263.13
2019-06-20T03:39:21.382Z,95261.47
2019-06-20T03:40:24.903Z,95260.29
2019-06-20T03:41:28.939Z,95257.64
2019-06-20T03:42:32.417Z,95260.63
2019-06-20T03:43:36.515Z,95260.76
2019-06-20T03:44:40.045Z,95257.95
2019-06-20T03:45:44.098Z,95253.31
2019-06-20T03:46:47.544Z,95260.03
2019-06-20T03:47:51.599Z,95261.28
2019-06-20T03:48:55.049Z,95256.05
2019-06-20T03:49:59.157Z,95259.47
2019-06-20T03:51:02.751Z,95263.93
2019-06-20T03:52:06.822Z,95268.41
2019-06-20T03:53:10.405Z,95271.03
2019-06-20T03:54:14.430Z,95276.20
2019-06-20T03:55:18.024Z,95279.02
2019-06-20T03:56:22.063Z,95282.13
2019-06-20T03:57:25.786Z,95283.50
2019-06-20T03:58:30.038Z,95280.38
2019-06-20T03:59:33.576Z,95288.65
2019-06-20T04:00:37.776Z,95290.55
2019-06-20T04:01:41.370Z,95290.37
2019-06-20T04:02:45.437Z,95295.88
2019-06-20T04:03:49.016Z,95296.91
2019-06-20T04:04:53.080Z,95293.64
2019-06-20T04:05:56.531Z,95298.87
2019-06-20T04:07:00.707Z,95298.07
2019-06-20T04:08:04.527Z,95302.06
2019-06-20T04:09:08.570Z,95302.68
2019-06-20T04:10:12.169Z,95301.31
2019-06-20T04:11:16.346Z,95302.44
2019-06-20T04:12:19.870Z,95305.84
2019-06-20T04:13:23.934Z,95305.45
2019-06-20T04:14:27.510Z,95303.09
2019-06-20T04:15:31.626Z,95305.90
2019-06-20T04:16:35.152Z,95302.34
2019-06-20T04:17:40.151Z,95301.31
2019-06-20T04:18:43.687Z,95303.55
2019-06-20T04:19:47.724Z,95302.42
2019-06-20T04:20:51.310Z,95297.91
2019-06-20T04:21:55.486Z,95297.70
2019-06-20T04:22:59.031Z,95296.64
2019-06-20T04:24:03.151Z,95298.27
2019-06-20T04:25:07.335Z,95300.85
2019-06-20T04:26:11.515Z,95296.23
2019-06-20T04:27:14.980Z,95298.42
2019-06-20T04:28:19.283Z,95297.80
2019-06-20T04:29:22.796Z,95294.44
2019-06-20T04:30:26.821Z,95302.06
2019-06-20T04:31:30.275Z,95295.36
2019-06-20T04:32:34.340Z,95301.94
2019-06-20T04:33:37.930Z,95301.19
2019-06-20T04:34:42.052Z,95296.58
2019-06-20T04:35:45.646Z,95298.97
2019-06-20T04:36:49.732Z,95302.61
2019-06-20T04:37:53.233Z,95297.25
2019-06-20T04:38:57.316Z,95305.54
2019-06-20T04:40:00.899Z,95304.05
2019-06-20T04:41:05.165Z,95311.13
2019-06-20T04:42:08.660Z,95314.50
2019-06-20T04:43:12.754Z,95326.87
2019-06-20T04:44:16.354Z,95321.41
2019-06-20T04:45:34.194Z,95318.42
2019-06-20T04:46:34.220Z,95320.07
2019-06-20T04:47:38.332Z,95324.11
2019-06-20T04:48:42.680Z,95331.50
2019-06-20T04:49:46.712Z,95333.45
2019-06-20T04:50:50.289Z,95334.83
2019-06-20T04:51:54.328Z,95332.27
2019-06-20T04:52:57.768Z,95336.77
2019-06-20T04:54:01.842Z,95332.17
2019-06-20T04:55:05.964Z,95332.20
2019-06-20T04:56:10.002Z,95340.79
2019-06-20T04:57:13.496Z,95341.81
2019-06-20T04:58:17.587Z,95339.66
2019-06-20T04:59:21.057Z,95339.69
2019-06-20T05:00:25.438Z,95341.03
2019-06-20T05:01:28.962Z,95342.49
2019-06-20T05:02:35.665Z,95340.87
2019-06-20T05:03:39.138Z,95336.19
2019-06-20T05:04:43.240Z,95340.05
2019-06-20T05:05:46.743Z,95339.66
2019-06-20T05:06:53.828Z,95339.05
2019-06-20T05:07:57.533Z,95339.38
2019-06-20T05:09:01.589Z,95333.27
2019-06-20T05:10:08.013Z,95341.55
2019-06-20T05:11:12.127Z,95337.95
2019-06-20T05:12:15.758Z,95335.15
2019-06-20T05:13:19.788Z,95339.16
2019-06-20T05:14:23.360Z,95344.23
2019-06-20T05:15:27.553Z,95339.75
2019-06-20T05:16:31.069Z,95344.20
2019-06-20T05:17:35.166Z,95341.67
2019-06-20T05:18:39.338Z,95340.98
2019-06-20T05:19:43.371Z,95339.02
2019-06-20T05:20:46.963Z,95336.66
2019-06-20T05:21:50.996Z,95336.23
2019-06-20T05:22:54.438Z,95338.23
2019-06-20T05:23:58.556Z,95336.46
2019-06-20T05:25:02.021Z,95339.16
2019-06-20T05:26:06.115Z,95340.30
2019-06-20T05:27:09.563Z,95335.48
2019-06-20T05:28:13.676Z,95337.69
2019-06-20T05:29:17.202Z,95334.22
2019-06-20T05:30:22.744Z,95334.23
2019-06-20T05:31:26.275Z,95337.36
2019-06-20T05:32:30.394Z,95343.59
2019-06-20T05:33:33.912Z,95345.37
2019-06-20T05:34:38.049Z,95341.94
2019-06-20T05:35:42.462Z,95354.60
2019-06-20T05:36:46.514Z,95348.24
2019-06-20T05:37:49.957Z,95342.72
2019-06-20T05:38:54.011Z,95351.37
2019-06-20T05:39:57.569Z,95344.83
2019-06-20T05:41:01.655Z,95349.42
2019-06-20T05:42:05.342Z,95351.95
2019-06-20T05:43:09.450Z,95354.37
2019-06-20T05:44:12.989Z,95362.23
2019-06-20T05:45:17.370Z,95360.47
2019-06-20T05:46:20.835Z,95365.97
2019-06-20T05:47:24.905Z,95360.30
2019-06-20T05:48:28.352Z,95362.52
2019-06-20T05:49:33.816Z,95365.64
2019-06-20T05:50:37.431Z,95370.25
2019-06-20T05:51:41.770Z,95374.37
2019-06-20T05:52:45.303Z,95367.84
2019-06-20T05:53:49.348Z,95377.04
2019-06-20T05:54:52.881Z,95370.33
2019-06-20T05:55:56.938Z,95374.34
2019-06-20T05:57:03.379Z,95375.37
2019-06-20T05:58:06.581Z,95372.39
2019-06-20T05:59:10.143Z,95378.50
2019-06-20T06:00:14.816Z,95386.25
2019-06-20T06:01:18.340Z,95382.13
2019-06-20T06:02:22.381Z,95390.26
2019-06-20T06:03:25.834Z,95387.30
2019-06-20T06:04:30.042Z,95386.52
2019-06-20T06:05:33.711Z,95387.69
2019-06-20T06:06:37.970Z,95396.64
2019-06-20T06:07:41.702Z,95391.09
2019-06-20T06:08:46.095Z,95393.75
2019-06-20T06:09:49.866Z,95392.94
2019-06-20T06:10:54.039Z,95392.48
2019-06-20T06:11:57.579Z,95388.27
2019-06-20T06:13:01.736Z,95377.45
2019-06-20T06:14:05.514Z,95381.27
2019-06-20T06:15:10.356Z,95377.70
2019-06-20T06:16:25.588Z,95377.83
2019-06-20T06:17:19.890Z,95385.56
2019-06-20T06:18:23.545Z,95391.78
2019-06-20T06:19:27.929Z,95390.27
2019-06-20T06:20:31.590Z,95386.52
2019-06-20T06:21:35.817Z,95387.52
2019-06-20T06:22:39.593Z,95391.70
2019-06-20T06:23:43.930Z,95385.30
2019-06-20T06:24:47.353Z,95385.80
2019-06-20T06:25:51.528Z,95390.00
2019-06-20T06:26:59.597Z,95391.45
2019-06-20T06:28:01.050Z,95389.65
2019-06-20T06:29:04.802Z,95387.89
2019-06-20T06:30:10.109Z,95389.68
2019-06-20T06:31:13.647Z,95384.92
2019-06-20T06:32:20.102Z,95386.43
2019-06-20T06:33:22.896Z,95389.08
2019-06-20T06:34:26.991Z,95388.16
2019-06-20T06:35:30.633Z,95394.64
2019-06-20T06:36:34.808Z,95392.53
2019-06-20T06:37:38.347Z,95398.17
2019-06-20T06:38:42.737Z,95394.59
2019-06-20T06:39:46.376Z,95400.78
2019-06-20T06:40:50.624Z,95394.03
2019-06-20T06:41:54.264Z,95397.74
2019-06-20T06:42:58.482Z,95394.03
2019-06-20T06:44:02.155Z,95393.57
2019-06-20T06:45:10.475Z,95391.38
2019-06-20T06:46:15.572Z,95390.98
2019-06-20T06:47:19.722Z,95396.95
2019-06-20T06:48:23.310Z,95397.52
2019-06-20T06:49:27.660Z,95403.97
2019-06-20T06:50:31.287Z,95396.98
2019-06-20T06:51:38.184Z,95403.00
2019-06-20T06:52:41.072Z,95409.03
2019-06-20T06:53:45.227Z,95399.66
2019-06-20T06:54:49.017Z,95403.64
2019-06-20T06:55:53.208Z,95407.27
2019-06-20T06:56:56.773Z,95413.91
2019-06-20T06:58:01.377Z,95409.14
2019-06-20T06:59:04.962Z,95407.80
2019-06-20T07:00:12.270Z,95400.62
2019-06-20T07:01:16.101Z,95405.84
2019-06-20T07:02:20.360Z,95408.45
2019-06-20T07:03:23.935Z,95406.29
2019-06-20T07:04:28.040Z,95408.59
2019-06-20T07:05:31.647Z,95407.02
2019-06-20T07:06:35.776Z,95404.61
2019-06-20T07:07:39.364Z,95410.02
2019-06-20T07:08:43.450Z,95404.28
2019-06-20T07:09:47.042Z,95406.81
2019-06-20T07:10:51.430Z,95405.24
2019-06-20T07:11:55.056Z,95405.24
2019-06-20T07:12:59.325Z,95401.41
2019-06-20T07:14:02.830Z,95403.77
2019-06-20T07:15:11.935Z,95403.42
2019-06-20T07:16:15.450Z,95407.65
2019-06-20T07:17:19.902Z,95409.06
2019-06-20T07:18:23.602Z,95403.85
2019-06-20T07:19:27.776Z,95411.34
2019-06-20T07:20:31.414Z,95410.03
2019-06-20T07:21:35.646Z,95412.91
2019-06-20T07:22:39.156Z,95413.13
2019-06-20T07:23:43.241Z,95417.09
2019-06-20T07:24:46.855Z,95420.58
2019-06-20T07:25:51.310Z,95415.36
2019-06-20T07:26:54.856Z,95420.95
2019-06-20T07:27:59.107Z,95413.98
2019-06-20T07:29:03.116Z,95421.06
2019-06-20T07:30:09.805Z,95421.65
2019-06-20T07:31:13.345Z,95422.28
2019-06-20T07:32:17.463Z,95422.00
2019-06-20T07:33:21.057Z,95424.09
2019-06-20T07:34:25.208Z,95424.12
2019-06-20T07:35:28.892Z,95430.41
2019-06-20T07:36:33.096Z,95425.75
2019-06-20T07:37:36.601Z,95428.00
2019-06-20T07:38:40.636Z,95422.28
2019-06-20T07:39:44.176Z,95422.24
2019-06-20T07:40:48.298Z,95419.96
2019-06-20T07:41:51.861Z,95425.75
2019-06-20T07:42:56.225Z,95419.00
2019-06-20T07:43:59.762Z,95416.23
2019-06-20T07:45:06.410Z,95418.36
2019-06-20T07:46:10.796Z,95416.97
2019-06-20T07:47:17.987Z,95410.34
2019-06-20T07:48:20.093Z,95417.30
2019-06-20T07:49:24.293Z,95410.61
2019-06-20T07:50:27.831Z,95415.56
2019-06-20T07:51:31.987Z,95408.30
2019-06-20T07:52:35.548Z,95408.26
2019-06-20T07:53:39.716Z,95403.16
2019-06-20T07:54:43.302Z,95403.60
2019-06-20T07:55:47.442Z,95407.73
2019-06-20T07:56:53.707Z,95405.26
2019-06-20T07:57:57.276Z,95403.59
2019-06-20T07:59:00.789Z,95404.45
2019-06-20T08:00:10.030Z,95398.15
2019-06-20T08:01:13.645Z,95398.48
2019-06-20T08:02:17.888Z,95398.16
2019-06-20T08:03:21.526Z,95394.48
2019-06-20T08:04:25.886Z,95389.17
2019-06-20T08:05:29.458Z,95388.55
2019-06-20T08:06:33.619Z,95394.33
2019-06-20T08:07:37.279Z,95393.86
2019-06-20T08:08:41.562Z,95387.95
2019-06-20T08:09:45.628Z,95393.86
2019-06-20T08:10:49.934Z,95390.58
2019-06-20T08:11:53.502Z,95387.71
2019-06-20T08:12:57.645Z,95382.19
2019-06-20T08:14:01.111Z,95384.16
2019-06-20T08:15:15.150Z,95385.02
2019-06-20T08:16:12.725Z,95384.51
2019-06-20T08:17:34.040Z,95388.12
2019-06-20T08:18:22.154Z,95383.00
2019-06-20T08:19:26.283Z,95388.42
2019-06-20T08:20:30.353Z,95393.92
2019-06-20T08:21:34.566Z,95381.03
2019-06-20T08:22:38.072Z,95386.41
2019-06-20T08:23:42.192Z,95391.59
2019-06-20T08:24:46.129Z,95388.68
2019-06-20T08:25:50.203Z,95384.52
2019-06-20T08:26:53.740Z,95386.12
2019-06-20T08:27:59.457Z,95381.41
2019-06-20T08:29:16.128Z,95381.27
2019-06-20T08:30:09.168Z,95376.69
2019-06-20T08:31:12.684Z,95374.13
2019-06-20T08:32:16.847Z,95377.08
2019-06-20T08:33:20.601Z,95374.21
2019-06-20T08:34:24.686Z,95379.79
2019-06-20T08:35:30.536Z,95384.95
2019-06-20T08:36:34.699Z,95378.72
2019-06-20T08:37:38.202Z,95375.22
2019-06-20T08:38:42.368Z,95371.45
2019-06-20T08:39:45.863Z,95375.76
2019-06-20T08:40:50.048Z,95374.41
2019-06-20T08:41:53.581Z,95372.84
2019-06-20T08:42:59.735Z,95374.60
2019-06-20T08:44:03.942Z,95377.91
2019-06-20T08:45:09.463Z,95374.63
2019-06-20T08:46:14.940Z,95375.22
2019-06-20T08:47:19.054Z,95376.17
2019-06-20T08:48:22.666Z,95375.63
2019-06-20T08:49:26.751Z,95374.28
2019-06-20T08:50:30.379Z,95376.17
2019-06-20T08:51:34.628Z,95378.17
2019-06-20T08:52:38.168Z,95374.33
2019-06-20T08:53:42.313Z,95381.53
2019-06-20T08:54:45.904Z,95377.29
2019-06-20T08:55:50.094Z,95377.77
2019-06-20T08:56:55.607Z,95381.50
2019-06-20T08:58:01.329Z,95379.66
2019-06-20T08:59:04.987Z,95382.56
2019-06-20T09:00:10.869Z,95377.95
2019-06-20T09:01:14.395Z,95374.57
2019-06-20T09:02:18.433Z,95381.50
2019-06-20T09:03:22.018Z,95371.97
2019-06-20T09:04:26.209Z,95376.22
2019-06-20T09:05:30.894Z,95373.20
2019-06-20T09:06:35.432Z,95369.88
2019-06-20T09:07:41.730Z,95368.48
2019-06-20T09:08:44.965Z,95368.69
2019-06-20T09:09:48.636Z,95368.69
2019-06-20T09:10:54.175Z,95367.67
2019-06-20T09:11:58.578Z,95369.44
2019-06-20T09:13:03.793Z,95365.94
2019-06-20T09:14:07.593Z,95366.73
2019-06-20T09:15:11.883Z,95365.27
2019-06-20T09:16:24.440Z,95369.45
2019-06-20T09:17:23.650Z,95365.59
2019-06-20T09:18:27.217Z,95368.38
2019-06-20T09:19:31.329Z,95370.38
2019-06-20T09:20:35.051Z,95373.20
2019-06-20T09:21:39.219Z,95373.94
2019-06-20T09:22:42.929Z,95368.42
2019-06-20T09:23:46.967Z,95373.73
2019-06-20T09:24:52.035Z,95372.38
2019-06-20T09:25:57.558Z,95368.77
2019-06-20T09:27:04.323Z,95368.91
2019-06-20T09:28:08.915Z,95366.48
2019-06-20T09:29:12.610Z,95366.75
2019-06-20T09:30:17.214Z,95371.86
2019-06-20T09:31:20.715Z,95373.41
2019-06-20T09:32:24.776Z,95380.21
2019-06-20T09:33:28.388Z,95377.00
2019-06-20T09:34:32.458Z,95374.55
2019-06-20T09:35:36.211Z,95370.66
2019-06-20T09:36:40.466Z,95374.81
2019-06-20T09:37:44.096Z,95379.39
2019-06-20T09:38:48.297Z,95386.19
2019-06-20T09:39:54.818Z,95381.38
2019-06-20T09:40:59.249Z,95208.27
2019-06-20T09:42:03.445Z,95387.31
2019-06-20T09:43:07.846Z,95393.25
2019-06-20T09:44:11.369Z,95384.78
2019-06-20T09:45:17.118Z,95387.00
2019-06-20T09:46:22.088Z,95392.47
2019-06-20T09:47:26.174Z,95392.81
2019-06-20T09:48:29.687Z,95401.74
2019-06-20T09:49:33.791Z,95391.35
2019-06-20T09:50:37.421Z,95388.29
2019-06-20T09:51:41.495Z,95388.92
2019-06-20T09:52:44.973Z,95393.10
2019-06-20T09:53:49.895Z,95394.64
2019-06-20T09:54:53.924Z,95391.17
2019-06-20T09:55:57.999Z,95396.13
2019-06-20T09:57:01.559Z,95395.66
2019-06-20T09:58:06.194Z,95393.03
2019-06-20T09:59:26.656Z,95392.55
2019-06-20T10:00:26.933Z,95391.95
2019-06-20T10:01:30.434Z,95391.88
2019-06-20T10:02:34.566Z,95391.69
2019-06-20T10:03:38.239Z,95391.87
2019-06-20T10:04:42.545Z,95386.22
2019-06-20T10:05:47.666Z,95383.42
2019-06-20T10:06:52.358Z,95390.15
2019-06-20T10:07:56.872Z,95389.66
2019-06-20T10:09:01.322Z,95392.43
2019-06-20T10:10:10.111Z,95393.36
2019-06-20T10:11:14.378Z,95389.85
2019-06-20T10:12:18.681Z,95385.14
2019-06-20T10:13:23.277Z,95387.95
2019-06-20T10:14:27.412Z,95389.03
2019-06-20T10:15:36.224Z,95386.11
2019-06-20T10:16:45.665Z,95388.09
2019-06-20T10:17:47.379Z,95387.88
2019-06-20T10:18:52.136Z,95392.66
2019-06-20T10:19:56.380Z,95386.60
2019-06-20T10:21:00.312Z,95388.55
2019-06-20T10:22:08.209Z,95393.33
2019-06-20T10:23:11.939Z,95387.83
2019-06-20T10:24:17.115Z,95385.55
2019-06-20T10:25:21.032Z,95386.25
2019-06-20T10:26:25.798Z,95385.87
2019-06-20T10:27:29.488Z,95387.81
2019-06-20T10:28:38.087Z,95390.02
2019-06-20T10:29:44.424Z,95392.19
2019-06-20T10:30:51.066Z,95392.16
2019-06-20T10:31:55.347Z,95392.84
2019-06-20T10:33:02.035Z,95383.68
2019-06-20T10:34:07.793Z,95393.36
2019-06-20T10:35:13.014Z,95396.73
2019-06-20T10:36:18.632Z,95392.98
2019-06-20T10:37:23.209Z,95392.98
2019-06-20T10:38:27.328Z,95388.20
2019-06-20T10:39:32.407Z,95390.96
2019-06-20T10:40:36.168Z,95393.26
2019-06-20T10:41:40.809Z,95392.52
2019-06-20T10:42:46.199Z,95397.44
2019-06-20T10:43:51.745Z,95399.87
2019-06-20T10:44:56.258Z,95396.75
2019-06-20T10:46:01.954Z,95395.92
2019-06-20T10:47:06.007Z,95407.41
2019-06-20T10:48:10.643Z,95409.28
2019-06-20T10:49:14.336Z,95409.20
2019-06-20T10:50:19.368Z,95411.14
2019-06-20T10:51:33.407Z,95408.16
2019-06-20T10:52:37.795Z,95409.36
2019-06-20T10:53:44.009Z,95411.78
2019-06-20T10:54:47.723Z,95410.17
2019-06-20T10:55:51.337Z,95407.63
2019-06-20T10:56:57.132Z,95407.22
2019-06-20T10:58:04.966Z,95403.87
2019-06-20T10:59:14.220Z,95405.27
2019-06-20T11:00:30.219Z,95403.92
2019-06-20T11:01:31.844Z,95395.47
2019-06-20T11:02:36.277Z,95398.48
2019-06-20T11:03:43.826Z,95392.71
2019-06-20T11:04:51.537Z,95396.05
2019-06-20T11:05:59.817Z,95398.22
2019-06-20T11:07:04.156Z,95393.50
2019-06-20T11:08:09.923Z,95401.98
2019-06-20T11:09:13.833Z,95397.96
2019-06-20T11:10:18.371Z,95398.37
2019-06-20T11:11:25.912Z,95399.98
2019-06-20T11:12:42.628Z,95394.73
2019-06-20T11:13:39.529Z,95391.91
2019-06-20T11:14:46.213Z,95395.05
2019-06-20T11:15:53.858Z,95388.51
2019-06-20T11:17:00.118Z,95385.48
2019-06-20T11:18:08.790Z,95385.11
2019-06-20T11:19:12.569Z,95384.38
2019-06-20T11:20:16.937Z,95393.27
2019-06-20T11:21:21.120Z,95388.88
2019-06-20T11:22:24.736Z,95382.91
2019-06-20T11:23:29.525Z,95379.96
2019-06-20T11:24:33.318Z,95378.30
2019-06-20T11:25:41.997Z,95381.17
2019-06-20T11:26:46.028Z,95372.23
2019-06-20T11:27:50.274Z,95373.41
2019-06-20T11:28:53.889Z,95364.78
2019-06-20T11:29:58.495Z,95368.38
2019-06-20T11:31:02.057Z,95368.43
2019-06-20T11:32:06.683Z,95365.38
2019-06-20T11:33:10.338Z,95361.75
2019-06-20T11:34:14.468Z,95363.98
2019-06-20T11:35:18.012Z,95360.47
2019-06-20T11:36:22.171Z,95359.77
2019-06-20T11:37:25.642Z,95354.75
2019-06-20T11:38:29.734Z,95351.11
2019-06-20T11:39:34.699Z,95342.50
2019-06-20T11:40:39.681Z,95340.41
2019-06-20T11:41:43.689Z,95338.80
2019-06-20T11:42:47.885Z,95330.06
2019-06-20T11:43:51.332Z,95336.19
2019-06-20T11:44:55.125Z,95334.12
2019-06-20T11:45:58.547Z,95341.86
2019-06-20T11:47:02.656Z,95334.90
2019-06-20T11:48:06.281Z,95337.11
2019-06-20T11:49:10.375Z,95329.98
2019-06-20T11:50:14.277Z,95334.76
2019-06-20T11:51:18.285Z,95325.44
2019-06-20T11:52:21.818Z,95327.76
2019-06-20T11:53:25.861Z,95334.03
2019-06-20T11:54:29.439Z,95326.53
2019-06-20T11:55:33.534Z,95321.75
2019-06-20T11:56:37.077Z,95318.41
2019-06-20T11:57:41.127Z,95318.17
2019-06-20T11:58:44.632Z,95304.66
2019-06-20T11:59:48.737Z,95310.83
2019-06-20T12:01:03.160Z,95309.94
2019-06-20T12:01:57.991Z,95306.98
2019-06-20T12:03:01.516Z,95295.81
2019-06-20T12:04:05.668Z,95295.81
2019-06-20T12:05:11.009Z,95295.79
2019-06-20T12:06:15.175Z,95287.14
2019-06-20T12:07:18.760Z,95280.77
2019-06-20T12:08:22.934Z,95276.28
2019-06-20T12:09:26.466Z,95278.13
2019-06-20T12:10:30.554Z,95268.24
2019-06-20T12:11:34.062Z,95268.24
2019-06-20T12:12:39.667Z,95271.89
2019-06-20T12:13:44.490Z,95256.88
2019-06-20T12:14:48.743Z,95256.88
2019-06-20T12:15:52.338Z,95261.67
2019-06-20T12:16:56.574Z,95261.43
2019-06-20T12:18:00.090Z,95270.08
2019-06-20T12:19:04.153Z,95271.00
2019-06-20T12:20:08.340Z,95266.03
2019-06-20T12:21:12.463Z,95265.13
2019-06-20T12:22:15.887Z,95265.53
2019-06-20T12:23:20.079Z,95265.63
2019-06-20T12:24:23.550Z,95265.63
2019-06-20T12:25:27.924Z,95263.05
2019-06-20T12:26:31.375Z,95263.05
2019-06-20T12:27:35.462Z,95262.34
2019-06-20T12:28:39.635Z,95262.34
2019-06-20T12:29:44.863Z,95256.78
2019-06-20T12:30:48.748Z,95256.78
2019-06-20T12:31:52.906Z,95269.89
2019-06-20T12:32:56.935Z,95269.89
2019-06-20T12:34:00.943Z,95273.34
2019-06-20T12:35:05.768Z,95273.48